sensor_id;sensor_type;location;lat;lon;timestamp;P1;durP1;ratioP1;P2;durP2;ratioP2
10653;SDS011;5375;51.250;6.776;2023-05-29T00:00:12;5.22;;;2.72;;
10653;SDS011;5375;51.250;6.776;2023-05-29T00:02:39;5.13;;;2.47;;
10653;SDS011;5375;51.250;6.776;2023-05-29T00:05:09;5.05;;;2.28;;
10653;SDS011;5375;51.250;6.776;2023-05-29T00:07:38;4.28;;;2.35;;
10653;SDS011;5375;51.250;6.776;2023-05-29T00:10:05;5.05;;;2.10;;
10653;SDS011;5375;51.250;6.776;2023-05-29T00:12:31;5.13;;;2.50;;
10653;SDS011;5375;51.250;6.776;2023-05-29T00:14:57;2.85;;;2.20;;
10653;SDS011;5375;51.250;6.776;2023-05-29T00:17:23;4.28;;;2.35;;
10653;SDS011;5375;51.250;6.776;2023-05-29T00:19:49;4.88;;;2.13;;
10653;SDS011;5375;51.250;6.776;2023-05-29T00:22:15;4.38;;;1.90;;
10653;SDS011;5375;51.250;6.776;2023-05-29T00:24:41;3.17;;;2.13;;
10653;SDS011;5375;51.250;6.776;2023-05-29T00:27:07;3.28;;;2.10;;
10653;SDS011;5375;51.250;6.776;2023-05-29T00:29:34;3.22;;;2.20;;
10653;SDS011;5375;51.250;6.776;2023-05-29T00:32:01;2.20;;;1.80;;
10653;SDS011;5375;51.250;6.776;2023-05-29T00:34:27;3.03;;;2.28;;
10653;SDS011;5375;51.250;6.776;2023-05-29T00:36:53;2.50;;;2.03;;
10653;SDS011;5375;51.250;6.776;2023-05-29T00:39:20;3.03;;;2.20;;
10653;SDS011;5375;51.250;6.776;2023-05-29T00:41:47;4.07;;;2.30;;
10653;SDS011;5375;51.250;6.776;2023-05-29T00:44:16;4.35;;;2.63;;
10653;SDS011;5375;51.250;6.776;2023-05-29T00:46:43;4.75;;;2.15;;
10653;SDS011;5375;51.250;6.776;2023-05-29T00:49:09;3.17;;;2.13;;
10653;SDS011;5375;51.250;6.776;2023-05-29T00:51:36;2.30;;;2.03;;
10653;SDS011;5375;51.250;6.776;2023-05-29T00:54:02;2.90;;;1.95;;
10653;SDS011;5375;51.250;6.776;2023-05-29T00:56:33;3.05;;;2.08;;
10653;SDS011;5375;51.250;6.776;2023-05-29T00:59:00;3.00;;;1.92;;
10653;SDS011;5375;51.250;6.776;2023-05-29T01:01:26;3.50;;;2.00;;
10653;SDS011;5375;51.250;6.776;2023-05-29T01:03:53;3.83;;;1.98;;
10653;SDS011;5375;51.250;6.776;2023-05-29T01:06:22;2.72;;;1.80;;
10653;SDS011;5375;51.250;6.776;2023-05-29T01:08:48;3.10;;;2.15;;
10653;SDS011;5375;51.250;6.776;2023-05-29T01:14:03;2.63;;;2.03;;
10653;SDS011;5375;51.250;6.776;2023-05-29T01:16:38;2.95;;;1.92;;
10653;SDS011;5375;51.250;6.776;2023-05-29T01:24:38;3.10;;;1.90;;
10653;SDS011;5375;51.250;6.776;2023-05-29T01:27:14;2.70;;;1.88;;
10653;SDS011;5375;51.250;6.776;2023-05-29T01:29:44;2.35;;;1.80;;
10653;SDS011;5375;51.250;6.776;2023-05-29T01:32:12;3.83;;;1.77;;
10653;SDS011;5375;51.250;6.776;2023-05-29T01:34:38;2.80;;;1.75;;
10653;SDS011;5375;51.250;6.776;2023-05-29T01:37:04;2.90;;;1.98;;
10653;SDS011;5375;51.250;6.776;2023-05-29T01:39:30;2.72;;;1.70;;
10653;SDS011;5375;51.250;6.776;2023-05-29T01:41:56;2.42;;;1.75;;
10653;SDS011;5375;51.250;6.776;2023-05-29T01:44:24;3.35;;;2.08;;
10653;SDS011;5375;51.250;6.776;2023-05-29T01:46:51;2.05;;;1.75;;
10653;SDS011;5375;51.250;6.776;2023-05-29T01:49:17;3.42;;;1.98;;
10653;SDS011;5375;51.250;6.776;2023-05-29T01:51:43;2.83;;;2.00;;
10653;SDS011;5375;51.250;6.776;2023-05-29T01:54:09;2.42;;;1.60;;
10653;SDS011;5375;51.250;6.776;2023-05-29T01:56:36;2.72;;;1.77;;
10653;SDS011;5375;51.250;6.776;2023-05-29T01:59:03;1.80;;;1.60;;
10653;SDS011;5375;51.250;6.776;2023-05-29T02:01:31;5.03;;;2.10;;
10653;SDS011;5375;51.250;6.776;2023-05-29T02:06:22;2.65;;;1.90;;
10653;SDS011;5375;51.250;6.776;2023-05-29T02:08:49;3.25;;;2.10;;
10653;SDS011;5375;51.250;6.776;2023-05-29T02:11:14;2.33;;;1.85;;
10653;SDS011;5375;51.250;6.776;2023-05-29T02:13:41;2.35;;;1.83;;
10653;SDS011;5375;51.250;6.776;2023-05-29T02:16:07;3.08;;;1.92;;
10653;SDS011;5375;51.250;6.776;2023-05-29T02:18:33;2.47;;;2.05;;
10653;SDS011;5375;51.250;6.776;2023-05-29T02:20:59;1.90;;;1.70;;
10653;SDS011;5375;51.250;6.776;2023-05-29T02:23:25;1.90;;;1.60;;
10653;SDS011;5375;51.250;6.776;2023-05-29T02:25:51;2.47;;;2.05;;
10653;SDS011;5375;51.250;6.776;2023-05-29T02:28:17;2.35;;;1.52;;
10653;SDS011;5375;51.250;6.776;2023-05-29T02:30:43;2.92;;;1.90;;
10653;SDS011;5375;51.250;6.776;2023-05-29T02:33:09;2.25;;;1.80;;
10653;SDS011;5375;51.250;6.776;2023-05-29T02:35:35;3.35;;;1.65;;
10653;SDS011;5375;51.250;6.776;2023-05-29T02:38:01;2.17;;;1.67;;
10653;SDS011;5375;51.250;6.776;2023-05-29T02:40:27;3.50;;;2.00;;
10653;SDS011;5375;51.250;6.776;2023-05-29T02:42:53;2.80;;;2.00;;
10653;SDS011;5375;51.250;6.776;2023-05-29T02:45:19;2.40;;;1.80;;
10653;SDS011;5375;51.250;6.776;2023-05-29T02:47:45;2.85;;;1.90;;
10653;SDS011;5375;51.250;6.776;2023-05-29T02:50:11;2.33;;;1.67;;
10653;SDS011;5375;51.250;6.776;2023-05-29T02:52:39;2.17;;;1.77;;
10653;SDS011;5375;51.250;6.776;2023-05-29T02:55:05;2.08;;;1.50;;
10653;SDS011;5375;51.250;6.776;2023-05-29T02:57:32;2.92;;;1.77;;
10653;SDS011;5375;51.250;6.776;2023-05-29T02:59:58;1.95;;;1.67;;
10653;SDS011;5375;51.250;6.776;2023-05-29T03:02:24;2.63;;;1.65;;
10653;SDS011;5375;51.250;6.776;2023-05-29T03:04:50;2.20;;;1.90;;
10653;SDS011;5375;51.250;6.776;2023-05-29T03:07:16;2.50;;;1.75;;
10653;SDS011;5375;51.250;6.776;2023-05-29T03:09:42;2.90;;;1.60;;
10653;SDS011;5375;51.250;6.776;2023-05-29T03:12:07;4.35;;;1.90;;
10653;SDS011;5375;51.250;6.776;2023-05-29T03:14:33;2.72;;;1.85;;
10653;SDS011;5375;51.250;6.776;2023-05-29T03:17:01;3.83;;;1.77;;
10653;SDS011;5375;51.250;6.776;2023-05-29T03:19:27;2.50;;;1.50;;
10653;SDS011;5375;51.250;6.776;2023-05-29T03:21:53;1.85;;;1.52;;
10653;SDS011;5375;51.250;6.776;2023-05-29T03:24:19;2.88;;;1.70;;
10653;SDS011;5375;51.250;6.776;2023-05-29T03:26:45;2.05;;;1.60;;
10653;SDS011;5375;51.250;6.776;2023-05-29T03:29:11;1.95;;;1.50;;
10653;SDS011;5375;51.250;6.776;2023-05-29T03:31:37;7.90;;;1.83;;
10653;SDS011;5375;51.250;6.776;2023-05-29T03:34:03;2.67;;;1.65;;
10653;SDS011;5375;51.250;6.776;2023-05-29T03:36:29;3.50;;;1.80;;
10653;SDS011;5375;51.250;6.776;2023-05-29T03:38:54;5.07;;;1.77;;
10653;SDS011;5375;51.250;6.776;2023-05-29T03:41:20;3.55;;;1.80;;
10653;SDS011;5375;51.250;6.776;2023-05-29T03:43:47;3.53;;;1.70;;
10653;SDS011;5375;51.250;6.776;2023-05-29T03:46:12;2.88;;;1.60;;
10653;SDS011;5375;51.250;6.776;2023-05-29T03:48:38;2.70;;;1.75;;
10653;SDS011;5375;51.250;6.776;2023-05-29T03:51:04;3.17;;;1.85;;
10653;SDS011;5375;51.250;6.776;2023-05-29T03:53:31;2.67;;;1.48;;
10653;SDS011;5375;51.250;6.776;2023-05-29T03:55:57;2.58;;;1.40;;
10653;SDS011;5375;51.250;6.776;2023-05-29T03:58:23;2.55;;;1.77;;
10653;SDS011;5375;51.250;6.776;2023-05-29T04:00:49;2.05;;;1.75;;
10653;SDS011;5375;51.250;6.776;2023-05-29T04:03:15;2.78;;;1.60;;
10653;SDS011;5375;51.250;6.776;2023-05-29T04:05:41;4.63;;;1.67;;
10653;SDS011;5375;51.250;6.776;2023-05-29T04:08:07;1.92;;;1.40;;
10653;SDS011;5375;51.250;6.776;2023-05-29T04:10:33;2.78;;;1.65;;
10653;SDS011;5375;51.250;6.776;2023-05-29T04:13:00;4.50;;;1.92;;
10653;SDS011;5375;51.250;6.776;2023-05-29T04:15:28;2.63;;;1.70;;
10653;SDS011;5375;51.250;6.776;2023-05-29T04:17:55;2.78;;;1.50;;
10653;SDS011;5375;51.250;6.776;2023-05-29T04:20:21;3.72;;;1.98;;
10653;SDS011;5375;51.250;6.776;2023-05-29T04:22:46;1.92;;;1.50;;
10653;SDS011;5375;51.250;6.776;2023-05-29T04:25:12;2.38;;;1.58;;
10653;SDS011;5375;51.250;6.776;2023-05-29T04:27:38;4.25;;;1.90;;
10653;SDS011;5375;51.250;6.776;2023-05-29T04:30:05;2.65;;;1.58;;
10653;SDS011;5375;51.250;6.776;2023-05-29T04:32:32;1.90;;;1.52;;
10653;SDS011;5375;51.250;6.776;2023-05-29T04:34:58;1.67;;;1.50;;
10653;SDS011;5375;51.250;6.776;2023-05-29T04:37:27;2.08;;;1.35;;
10653;SDS011;5375;51.250;6.776;2023-05-29T04:39:57;6.38;;;1.58;;
10653;SDS011;5375;51.250;6.776;2023-05-29T04:42:23;2.55;;;1.60;;
10653;SDS011;5375;51.250;6.776;2023-05-29T04:44:50;4.60;;;1.63;;
10653;SDS011;5375;51.250;6.776;2023-05-29T04:47:17;3.05;;;1.55;;
10653;SDS011;5375;51.250;6.776;2023-05-29T04:49:44;3.30;;;1.40;;
10653;SDS011;5375;51.250;6.776;2023-05-29T04:52:13;3.03;;;1.60;;
10653;SDS011;5375;51.250;6.776;2023-05-29T04:54:40;5.18;;;1.77;;
10653;SDS011;5375;51.250;6.776;2023-05-29T04:57:06;2.83;;;1.38;;
10653;SDS011;5375;51.250;6.776;2023-05-29T04:59:32;3.08;;;1.70;;
10653;SDS011;5375;51.250;6.776;2023-05-29T05:01:57;4.00;;;1.40;;
10653;SDS011;5375;51.250;6.776;2023-05-29T05:04:23;2.60;;;1.58;;
10653;SDS011;5375;51.250;6.776;2023-05-29T05:06:49;4.85;;;1.48;;
10653;SDS011;5375;51.250;6.776;2023-05-29T05:09:16;3.25;;;1.42;;
10653;SDS011;5375;51.250;6.776;2023-05-29T05:11:42;2.38;;;1.63;;
10653;SDS011;5375;51.250;6.776;2023-05-29T05:14:08;7.47;;;1.73;;
10653;SDS011;5375;51.250;6.776;2023-05-29T05:16:34;3.08;;;1.45;;
10653;SDS011;5375;51.250;6.776;2023-05-29T05:19:00;3.45;;;1.92;;
10653;SDS011;5375;51.250;6.776;2023-05-29T05:21:26;3.60;;;1.70;;
10653;SDS011;5375;51.250;6.776;2023-05-29T05:23:52;3.20;;;1.80;;
10653;SDS011;5375;51.250;6.776;2023-05-29T05:26:17;5.15;;;1.77;;
10653;SDS011;5375;51.250;6.776;2023-05-29T05:28:43;2.00;;;1.35;;
10653;SDS011;5375;51.250;6.776;2023-05-29T05:31:10;3.15;;;1.60;;
10653;SDS011;5375;51.250;6.776;2023-05-29T05:33:36;3.97;;;1.70;;
10653;SDS011;5375;51.250;6.776;2023-05-29T05:36:02;4.90;;;1.80;;
10653;SDS011;5375;51.250;6.776;2023-05-29T05:38:28;3.15;;;1.95;;
10653;SDS011;5375;51.250;6.776;2023-05-29T05:40:54;2.10;;;1.40;;
10653;SDS011;5375;51.250;6.776;2023-05-29T05:43:21;4.43;;;1.80;;
10653;SDS011;5375;51.250;6.776;2023-05-29T05:45:47;4.63;;;1.67;;
10653;SDS011;5375;51.250;6.776;2023-05-29T05:48:13;3.58;;;1.75;;
10653;SDS011;5375;51.250;6.776;2023-05-29T05:50:39;3.40;;;1.83;;
10653;SDS011;5375;51.250;6.776;2023-05-29T05:53:05;4.25;;;1.90;;
10653;SDS011;5375;51.250;6.776;2023-05-29T05:55:30;4.20;;;1.73;;
10653;SDS011;5375;51.250;6.776;2023-05-29T05:57:56;3.35;;;1.50;;
10653;SDS011;5375;51.250;6.776;2023-05-29T06:00:23;3.85;;;1.48;;
10653;SDS011;5375;51.250;6.776;2023-05-29T06:02:49;3.35;;;1.90;;
10653;SDS011;5375;51.250;6.776;2023-05-29T06:05:15;3.97;;;1.70;;
10653;SDS011;5375;51.250;6.776;2023-05-29T06:07:41;3.45;;;1.75;;
10653;SDS011;5375;51.250;6.776;2023-05-29T06:10:07;3.88;;;1.92;;
10653;SDS011;5375;51.250;6.776;2023-05-29T06:12:33;4.00;;;1.98;;
10653;SDS011;5375;51.250;6.776;2023-05-29T06:14:59;5.35;;;1.85;;
10653;SDS011;5375;51.250;6.776;2023-05-29T06:17:25;3.22;;;1.77;;
10653;SDS011;5375;51.250;6.776;2023-05-29T06:19:51;3.90;;;1.63;;
10653;SDS011;5375;51.250;6.776;2023-05-29T06:22:18;4.35;;;1.67;;
10653;SDS011;5375;51.250;6.776;2023-05-29T06:24:44;6.00;;;1.90;;
10653;SDS011;5375;51.250;6.776;2023-05-29T06:27:10;5.20;;;1.75;;
10653;SDS011;5375;51.250;6.776;2023-05-29T06:29:35;3.75;;;1.77;;
10653;SDS011;5375;51.250;6.776;2023-05-29T06:32:01;4.47;;;2.28;;
10653;SDS011;5375;51.250;6.776;2023-05-29T06:34:27;4.70;;;1.55;;
10653;SDS011;5375;51.250;6.776;2023-05-29T06:36:53;4.32;;;1.90;;
10653;SDS011;5375;51.250;6.776;2023-05-29T06:39:20;3.92;;;1.75;;
10653;SDS011;5375;51.250;6.776;2023-05-29T06:41:46;3.90;;;1.70;;
10653;SDS011;5375;51.250;6.776;2023-05-29T06:44:12;2.70;;;1.70;;
10653;SDS011;5375;51.250;6.776;2023-05-29T06:46:38;5.65;;;1.83;;
10653;SDS011;5375;51.250;6.776;2023-05-29T06:49:04;5.05;;;1.92;;
10653;SDS011;5375;51.250;6.776;2023-05-29T06:51:30;4.00;;;2.28;;
10653;SDS011;5375;51.250;6.776;2023-05-29T06:53:57;2.97;;;1.70;;
10653;SDS011;5375;51.250;6.776;2023-05-29T06:56:23;5.68;;;1.88;;
10653;SDS011;5375;51.250;6.776;2023-05-29T06:58:49;3.60;;;1.90;;
10653;SDS011;5375;51.250;6.776;2023-05-29T07:01:14;5.32;;;1.77;;
10653;SDS011;5375;51.250;6.776;2023-05-29T07:03:41;4.25;;;2.28;;
10653;SDS011;5375;51.250;6.776;2023-05-29T07:06:07;5.07;;;1.80;;
10653;SDS011;5375;51.250;6.776;2023-05-29T07:08:35;4.78;;;1.70;;
10653;SDS011;5375;51.250;6.776;2023-05-29T07:11:01;4.68;;;1.80;;
10653;SDS011;5375;51.250;6.776;2023-05-29T07:13:27;4.30;;;1.70;;
10653;SDS011;5375;51.250;6.776;2023-05-29T07:15:53;4.10;;;1.92;;
10653;SDS011;5375;51.250;6.776;2023-05-29T07:18:19;4.43;;;1.95;;
10653;SDS011;5375;51.250;6.776;2023-05-29T07:20:45;3.45;;;1.65;;
10653;SDS011;5375;51.250;6.776;2023-05-29T07:23:11;5.22;;;2.17;;
10653;SDS011;5375;51.250;6.776;2023-05-29T07:25:37;5.90;;;2.20;;
10653;SDS011;5375;51.250;6.776;2023-05-29T07:28:03;6.07;;;1.95;;
10653;SDS011;5375;51.250;6.776;2023-05-29T07:30:29;4.50;;;1.90;;
10653;SDS011;5375;51.250;6.776;2023-05-29T07:32:55;6.30;;;2.17;;
10653;SDS011;5375;51.250;6.776;2023-05-29T07:38:25;8.50;;;2.58;;
10653;SDS011;5375;51.250;6.776;2023-05-29T07:40:51;5.30;;;2.25;;
10653;SDS011;5375;51.250;6.776;2023-05-29T07:43:17;8.25;;;2.92;;
10653;SDS011;5375;51.250;6.776;2023-05-29T07:45:43;6.15;;;2.25;;
10653;SDS011;5375;51.250;6.776;2023-05-29T07:48:08;12.55;;;2.72;;
10653;SDS011;5375;51.250;6.776;2023-05-29T07:50:34;6.57;;;2.40;;
10653;SDS011;5375;51.250;6.776;2023-05-29T07:53:01;10.13;;;2.40;;
10653;SDS011;5375;51.250;6.776;2023-05-29T07:55:27;6.88;;;2.75;;
10653;SDS011;5375;51.250;6.776;2023-05-29T07:57:53;7.78;;;2.47;;
10653;SDS011;5375;51.250;6.776;2023-05-29T08:00:19;9.48;;;2.63;;
10653;SDS011;5375;51.250;6.776;2023-05-29T08:02:46;10.70;;;2.90;;
10653;SDS011;5375;51.250;6.776;2023-05-29T08:05:11;6.93;;;2.20;;
10653;SDS011;5375;51.250;6.776;2023-05-29T08:07:38;6.57;;;1.88;;
10653;SDS011;5375;51.250;6.776;2023-05-29T08:10:04;8.95;;;2.58;;
10653;SDS011;5375;51.250;6.776;2023-05-29T08:12:31;5.30;;;2.30;;
10653;SDS011;5375;51.250;6.776;2023-05-29T08:14:56;11.30;;;2.58;;
10653;SDS011;5375;51.250;6.776;2023-05-29T08:17:22;4.53;;;2.20;;
10653;SDS011;5375;51.250;6.776;2023-05-29T08:19:48;6.10;;;2.42;;
10653;SDS011;5375;51.250;6.776;2023-05-29T08:22:15;9.48;;;3.13;;
10653;SDS011;5375;51.250;6.776;2023-05-29T08:24:41;9.07;;;2.47;;
10653;SDS011;5375;51.250;6.776;2023-05-29T08:27:07;6.07;;;2.17;;
10653;SDS011;5375;51.250;6.776;2023-05-29T08:29:34;5.68;;;1.85;;
10653;SDS011;5375;51.250;6.776;2023-05-29T08:32:01;7.53;;;2.13;;
10653;SDS011;5375;51.250;6.776;2023-05-29T08:34:27;10.68;;;2.85;;
10653;SDS011;5375;51.250;6.776;2023-05-29T08:36:53;8.35;;;2.53;;
10653;SDS011;5375;51.250;6.776;2023-05-29T08:39:20;6.32;;;2.15;;
10653;SDS011;5375;51.250;6.776;2023-05-29T08:42:04;6.97;;;2.10;;
10653;SDS011;5375;51.250;6.776;2023-05-29T08:44:32;6.30;;;2.10;;
10653;SDS011;5375;51.250;6.776;2023-05-29T08:47:01;6.30;;;2.20;;
10653;SDS011;5375;51.250;6.776;2023-05-29T08:49:34;5.20;;;2.00;;
10653;SDS011;5375;51.250;6.776;2023-05-29T08:52:16;6.00;;;2.33;;
10653;SDS011;5375;51.250;6.776;2023-05-29T08:54:45;8.43;;;2.17;;
10653;SDS011;5375;51.250;6.776;2023-05-29T08:57:11;8.27;;;2.30;;
10653;SDS011;5375;51.250;6.776;2023-05-29T08:59:38;5.97;;;2.20;;
10653;SDS011;5375;51.250;6.776;2023-05-29T09:02:07;9.43;;;2.00;;
10653;SDS011;5375;51.250;6.776;2023-05-29T09:04:33;5.15;;;1.83;;
10653;SDS011;5375;51.250;6.776;2023-05-29T09:06:59;6.07;;;2.25;;
10653;SDS011;5375;51.250;6.776;2023-05-29T09:09:28;7.82;;;2.15;;
10653;SDS011;5375;51.250;6.776;2023-05-29T09:11:56;6.05;;;2.20;;
10653;SDS011;5375;51.250;6.776;2023-05-29T09:16:59;9.60;;;2.33;;
10653;SDS011;5375;51.250;6.776;2023-05-29T09:19:25;8.82;;;2.10;;
10653;SDS011;5375;51.250;6.776;2023-05-29T09:21:51;9.48;;;3.28;;
10653;SDS011;5375;51.250;6.776;2023-05-29T09:24:24;7.82;;;2.72;;
10653;SDS011;5375;51.250;6.776;2023-05-29T09:26:52;9.90;;;2.60;;
10653;SDS011;5375;51.250;6.776;2023-05-29T09:29:18;11.93;;;2.92;;
10653;SDS011;5375;51.250;6.776;2023-05-29T09:31:48;6.88;;;2.75;;
10653;SDS011;5375;51.250;6.776;2023-05-29T09:34:14;7.68;;;2.10;;
10653;SDS011;5375;51.250;6.776;2023-05-29T09:36:40;8.70;;;2.72;;
10653;SDS011;5375;51.250;6.776;2023-05-29T09:39:05;4.95;;;2.20;;
10653;SDS011;5375;51.250;6.776;2023-05-29T09:41:34;5.30;;;2.05;;
10653;SDS011;5375;51.250;6.776;2023-05-29T09:44:07;10.90;;;2.47;;
10653;SDS011;5375;51.250;6.776;2023-05-29T09:46:35;6.75;;;2.55;;
10653;SDS011;5375;51.250;6.776;2023-05-29T09:49:02;7.75;;;2.58;;
10653;SDS011;5375;51.250;6.776;2023-05-29T09:51:30;7.05;;;2.50;;
10653;SDS011;5375;51.250;6.776;2023-05-29T09:53:56;9.52;;;2.88;;
10653;SDS011;5375;51.250;6.776;2023-05-29T09:56:26;11.18;;;3.45;;
10653;SDS011;5375;51.250;6.776;2023-05-29T09:58:53;9.32;;;2.83;;
10653;SDS011;5375;51.250;6.776;2023-05-29T10:01:22;10.07;;;2.45;;
10653;SDS011;5375;51.250;6.776;2023-05-29T10:03:49;7.07;;;2.38;;
10653;SDS011;5375;51.250;6.776;2023-05-29T10:06:15;9.23;;;2.47;;
10653;SDS011;5375;51.250;6.776;2023-05-29T10:08:45;7.10;;;2.42;;
10653;SDS011;5375;51.250;6.776;2023-05-29T10:11:14;6.28;;;2.17;;
10653;SDS011;5375;51.250;6.776;2023-05-29T10:13:42;7.32;;;2.42;;
10653;SDS011;5375;51.250;6.776;2023-05-29T10:16:14;7.50;;;2.40;;
10653;SDS011;5375;51.250;6.776;2023-05-29T10:18:44;12.02;;;2.58;;
10653;SDS011;5375;51.250;6.776;2023-05-29T10:21:14;7.88;;;2.55;;
10653;SDS011;5375;51.250;6.776;2023-05-29T10:23:42;6.53;;;2.10;;
10653;SDS011;5375;51.250;6.776;2023-05-29T10:28:55;8.15;;;2.42;;
10653;SDS011;5375;51.250;6.776;2023-05-29T10:34:22;9.15;;;2.50;;
10653;SDS011;5375;51.250;6.776;2023-05-29T10:37:01;10.82;;;2.42;;
10653;SDS011;5375;51.250;6.776;2023-05-29T10:39:34;6.30;;;2.20;;
10653;SDS011;5375;51.250;6.776;2023-05-29T10:42:00;5.40;;;2.13;;
10653;SDS011;5375;51.250;6.776;2023-05-29T10:49:25;11.93;;;2.40;;
10653;SDS011;5375;51.250;6.776;2023-05-29T10:51:51;6.55;;;2.72;;
10653;SDS011;5375;51.250;6.776;2023-05-29T10:54:21;10.05;;;2.38;;
10653;SDS011;5375;51.250;6.776;2023-05-29T10:56:52;8.48;;;2.42;;
10653;SDS011;5375;51.250;6.776;2023-05-29T10:59:21;10.55;;;2.83;;
10653;SDS011;5375;51.250;6.776;2023-05-29T11:01:50;9.75;;;2.78;;
10653;SDS011;5375;51.250;6.776;2023-05-29T11:06:46;7.90;;;2.85;;
10653;SDS011;5375;51.250;6.776;2023-05-29T11:12:24;6.47;;;2.50;;
10653;SDS011;5375;51.250;6.776;2023-05-29T11:20:08;7.15;;;2.40;;
10653;SDS011;5375;51.250;6.776;2023-05-29T11:22:46;4.82;;;2.30;;
10653;SDS011;5375;51.250;6.776;2023-05-29T11:25:17;6.60;;;2.45;;
10653;SDS011;5375;51.250;6.776;2023-05-29T11:27:45;6.05;;;2.35;;
10653;SDS011;5375;51.250;6.776;2023-05-29T11:30:11;8.40;;;2.85;;
10653;SDS011;5375;51.250;6.776;2023-05-29T11:32:38;5.07;;;2.40;;
10653;SDS011;5375;51.250;6.776;2023-05-29T11:35:08;6.80;;;2.33;;
10653;SDS011;5375;51.250;6.776;2023-05-29T11:37:37;4.57;;;2.20;;
10653;SDS011;5375;51.250;6.776;2023-05-29T11:40:06;5.88;;;2.20;;
10653;SDS011;5375;51.250;6.776;2023-05-29T11:42:34;7.97;;;2.42;;
10653;SDS011;5375;51.250;6.776;2023-05-29T11:45:16;10.68;;;2.95;;
10653;SDS011;5375;51.250;6.776;2023-05-29T11:50:28;5.93;;;2.20;;
10653;SDS011;5375;51.250;6.776;2023-05-29T11:52:55;7.15;;;1.80;;
10653;SDS011;5375;51.250;6.776;2023-05-29T11:55:22;5.70;;;2.30;;
10653;SDS011;5375;51.250;6.776;2023-05-29T11:57:49;8.55;;;2.42;;
10653;SDS011;5375;51.250;6.776;2023-05-29T12:00:16;7.53;;;2.75;;
10653;SDS011;5375;51.250;6.776;2023-05-29T12:02:44;8.40;;;2.92;;
10653;SDS011;5375;51.250;6.776;2023-05-29T12:05:13;9.90;;;3.28;;
10653;SDS011;5375;51.250;6.776;2023-05-29T12:07:53;9.05;;;2.78;;
10653;SDS011;5375;51.250;6.776;2023-05-29T12:10:21;7.20;;;2.92;;
10653;SDS011;5375;51.250;6.776;2023-05-29T12:12:51;8.63;;;2.92;;
10653;SDS011;5375;51.250;6.776;2023-05-29T12:15:28;8.05;;;3.75;;
10653;SDS011;5375;51.250;6.776;2023-05-29T12:17:54;7.13;;;2.90;;
10653;SDS011;5375;51.250;6.776;2023-05-29T12:20:24;9.65;;;3.72;;
10653;SDS011;5375;51.250;6.776;2023-05-29T12:22:53;7.68;;;2.72;;
10653;SDS011;5375;51.250;6.776;2023-05-29T12:25:26;9.30;;;2.95;;
10653;SDS011;5375;51.250;6.776;2023-05-29T12:27:51;11.30;;;3.20;;
10653;SDS011;5375;51.250;6.776;2023-05-29T12:30:21;13.85;;;6.65;;
10653;SDS011;5375;51.250;6.776;2023-05-29T12:32:51;37.45;;;25.85;;
10653;SDS011;5375;51.250;6.776;2023-05-29T12:37:47;189.57;;;142.98;;
10653;SDS011;5375;51.250;6.776;2023-05-29T12:40:15;225.13;;;177.50;;
10653;SDS011;5375;51.250;6.776;2023-05-29T12:42:42;214.88;;;173.73;;
10653;SDS011;5375;51.250;6.776;2023-05-29T12:45:09;217.98;;;168.27;;
10653;SDS011;5375;51.250;6.776;2023-05-29T12:47:37;225.18;;;170.85;;
10653;SDS011;5375;51.250;6.776;2023-05-29T12:50:42;204.20;;;154.20;;
10653;SDS011;5375;51.250;6.776;2023-05-29T12:55:32;179.63;;;138.00;;
10653;SDS011;5375;51.250;6.776;2023-05-29T12:58:19;124.85;;;93.85;;
10653;SDS011;5375;51.250;6.776;2023-05-29T13:00:46;140.20;;;106.85;;
10653;SDS011;5375;51.250;6.776;2023-05-29T13:03:16;114.53;;;91.80;;
10653;SDS011;5375;51.250;6.776;2023-05-29T13:05:42;96.82;;;79.90;;
10653;SDS011;5375;51.250;6.776;2023-05-29T13:08:08;93.32;;;75.88;;
10653;SDS011;5375;51.250;6.776;2023-05-29T13:10:35;95.78;;;75.57;;
10653;SDS011;5375;51.250;6.776;2023-05-29T13:13:00;96.72;;;75.40;;
10653;SDS011;5375;51.250;6.776;2023-05-29T13:15:26;103.32;;;78.82;;
10653;SDS011;5375;51.250;6.776;2023-05-29T13:17:52;104.70;;;81.53;;
10653;SDS011;5375;51.250;6.776;2023-05-29T13:20:18;104.05;;;82.47;;
10653;SDS011;5375;51.250;6.776;2023-05-29T13:22:45;102.15;;;81.20;;
10653;SDS011;5375;51.250;6.776;2023-05-29T13:25:14;94.32;;;77.93;;
10653;SDS011;5375;51.250;6.776;2023-05-29T13:27:42;97.45;;;78.10;;
10653;SDS011;5375;51.250;6.776;2023-05-29T13:30:10;105.47;;;81.30;;
10653;SDS011;5375;51.250;6.776;2023-05-29T13:32:36;98.40;;;80.55;;
10653;SDS011;5375;51.250;6.776;2023-05-29T13:35:02;101.40;;;80.10;;
10653;SDS011;5375;51.250;6.776;2023-05-29T13:37:28;96.95;;;76.10;;
10653;SDS011;5375;51.250;6.776;2023-05-29T13:39:54;97.45;;;77.68;;
10653;SDS011;5375;51.250;6.776;2023-05-29T13:42:20;91.88;;;74.30;;
10653;SDS011;5375;51.250;6.776;2023-05-29T13:44:47;91.30;;;73.97;;
10653;SDS011;5375;51.250;6.776;2023-05-29T13:47:13;87.90;;;71.65;;
10653;SDS011;5375;51.250;6.776;2023-05-29T13:49:39;89.13;;;71.72;;
10653;SDS011;5375;51.250;6.776;2023-05-29T13:52:05;88.00;;;71.30;;
10653;SDS011;5375;51.250;6.776;2023-05-29T13:54:31;87.63;;;69.47;;
10653;SDS011;5375;51.250;6.776;2023-05-29T13:57:04;84.68;;;66.53;;
10653;SDS011;5375;51.250;6.776;2023-05-29T13:59:31;81.93;;;65.97;;
10653;SDS011;5375;51.250;6.776;2023-05-29T14:01:57;82.07;;;66.57;;
10653;SDS011;5375;51.250;6.776;2023-05-29T14:04:23;82.88;;;67.50;;
10653;SDS011;5375;51.250;6.776;2023-05-29T14:06:52;80.38;;;64.97;;
10653;SDS011;5375;51.250;6.776;2023-05-29T14:09:18;84.53;;;65.38;;
10653;SDS011;5375;51.250;6.776;2023-05-29T14:11:51;79.68;;;62.10;;
10653;SDS011;5375;51.250;6.776;2023-05-29T14:14:18;73.88;;;61.20;;
10653;SDS011;5375;51.250;6.776;2023-05-29T14:16:44;84.00;;;64.85;;
10653;SDS011;5375;51.250;6.776;2023-05-29T14:19:09;81.68;;;63.97;;
10653;SDS011;5375;51.250;6.776;2023-05-29T14:21:35;80.30;;;63.45;;
10653;SDS011;5375;51.250;6.776;2023-05-29T14:24:01;77.88;;;62.50;;
10653;SDS011;5375;51.250;6.776;2023-05-29T14:26:27;73.18;;;59.53;;
10653;SDS011;5375;51.250;6.776;2023-05-29T14:28:53;73.88;;;61.58;;
10653;SDS011;5375;51.250;6.776;2023-05-29T14:31:19;79.40;;;61.58;;
10653;SDS011;5375;51.250;6.776;2023-05-29T14:33:46;73.28;;;58.95;;
10653;SDS011;5375;51.250;6.776;2023-05-29T14:36:12;77.60;;;59.05;;
10653;SDS011;5375;51.250;6.776;2023-05-29T14:38:37;70.22;;;57.17;;
10653;SDS011;5375;51.250;6.776;2023-05-29T14:41:03;68.63;;;55.65;;
10653;SDS011;5375;51.250;6.776;2023-05-29T14:43:31;68.30;;;55.35;;
10653;SDS011;5375;51.250;6.776;2023-05-29T14:45:57;69.38;;;56.88;;
10653;SDS011;5375;51.250;6.776;2023-05-29T14:48:23;68.88;;;56.42;;
10653;SDS011;5375;51.250;6.776;2023-05-29T14:50:49;70.20;;;55.42;;
10653;SDS011;5375;51.250;6.776;2023-05-29T14:53:15;68.65;;;55.28;;
10653;SDS011;5375;51.250;6.776;2023-05-29T14:55:41;68.50;;;54.95;;
10653;SDS011;5375;51.250;6.776;2023-05-29T14:58:06;65.78;;;54.10;;
10653;SDS011;5375;51.250;6.776;2023-05-29T15:00:32;64.45;;;54.85;;
10653;SDS011;5375;51.250;6.776;2023-05-29T15:02:58;62.83;;;51.85;;
10653;SDS011;5375;51.250;6.776;2023-05-29T15:05:25;60.72;;;49.53;;
10653;SDS011;5375;51.250;6.776;2023-05-29T15:07:51;64.95;;;52.72;;
10653;SDS011;5375;51.250;6.776;2023-05-29T15:10:19;63.80;;;51.65;;
10653;SDS011;5375;51.250;6.776;2023-05-29T15:12:46;59.75;;;49.72;;
10653;SDS011;5375;51.250;6.776;2023-05-29T15:15:11;61.22;;;49.67;;
10653;SDS011;5375;51.250;6.776;2023-05-29T15:17:37;67.63;;;52.90;;
10653;SDS011;5375;51.250;6.776;2023-05-29T15:20:04;60.78;;;49.67;;
10653;SDS011;5375;51.250;6.776;2023-05-29T15:22:30;62.05;;;49.05;;
10653;SDS011;5375;51.250;6.776;2023-05-29T15:24:56;63.35;;;50.20;;
10653;SDS011;5375;51.250;6.776;2023-05-29T15:27:22;58.13;;;49.28;;
10653;SDS011;5375;51.250;6.776;2023-05-29T15:29:52;57.05;;;48.08;;
10653;SDS011;5375;51.250;6.776;2023-05-29T15:32:17;56.83;;;46.22;;
10653;SDS011;5375;51.250;6.776;2023-05-29T15:34:43;59.10;;;47.60;;
10653;SDS011;5375;51.250;6.776;2023-05-29T15:37:10;60.10;;;49.83;;
10653;SDS011;5375;51.250;6.776;2023-05-29T15:39:35;63.10;;;50.58;;